Miccosukee, Florida
Current Conditions -  °F | °C
As of 11:53 PM on Sunday 25 Jan 2015 (Local Time) from KTLH Reporting Station
Scattered Clouds Scattered Clouds  
Wind Chill: 51°   Ceiling: Unl
Heat Index: 51°   Visibility: 10mi
Dew Point: 45°   Wind: 0mph
Humidity: 80%   Direction: NA
Pressure: 29.87"   Gusts: NA
Location:  30.59°N, 84.04°W
Report Text: KTLH 260353Z 00000KT 10SM FEW042 SCT060 SCT250 11/07 A2987 RMK AO2 SLP115 LAST AUGMENTED OBS T01060072 $
Loading
Personal Weather Stations






























Interactive Weather Map New forecast layout! Learn more

10-Day Weather Forecast

Advertisements
Track Severe Weather on mobile